sensor_id;sensor_type;location;lat;lon;timestamp;pressure;altitude;pressure_sealevel;temperature;humidity
21824;BME280;11074;48.596;9.238;2022-08-11T00:00:05;98725.38;;;20.22;52.52
21824;BME280;11074;48.596;9.238;2022-08-11T00:02:37;98720.75;;;20.22;53.03
21824;BME280;11074;48.596;9.238;2022-08-11T00:05:15;98726.16;;;20.09;53.66
21824;BME280;11074;48.596;9.238;2022-08-11T00:07:55;98737.63;;;20.06;54.73
21824;BME280;11074;48.596;9.238;2022-08-11T00:10:24;98732.16;;;19.92;53.82
21824;BME280;11074;48.596;9.238;2022-08-11T00:13:02;98726.97;;;19.95;54.39
21824;BME280;11074;48.596;9.238;2022-08-11T00:15:42;98734.59;;;20.07;54.73
21824;BME280;11074;48.596;9.238;2022-08-11T00:18:10;98733.28;;;20.05;54.69
21824;BME280;11074;48.596;9.238;2022-08-11T00:20:40;98737.41;;;20.02;55.37
21824;BME280;11074;48.596;9.238;2022-08-11T00:23:14;98722.81;;;19.84;56.23
21824;BME280;11074;48.596;9.238;2022-08-11T00:25:49;98720.91;;;19.85;56.47
21824;BME280;11074;48.596;9.238;2022-08-11T00:28:25;98728.69;;;19.41;54.19
21824;BME280;11074;48.596;9.238;2022-08-11T00:30:54;98724.56;;;19.24;54.82
21824;BME280;11074;48.596;9.238;2022-08-11T00:33:36;98725.09;;;19.45;54.72
21824;BME280;11074;48.596;9.238;2022-08-11T00:36:04;98732.84;;;19.52;52.84
21824;BME280;11074;48.596;9.238;2022-08-11T00:38:36;98737.00;;;19.63;54.84
21824;BME280;11074;48.596;9.238;2022-08-11T00:53:06;98726.91;;;18.75;56.35
21824;BME280;11074;48.596;9.238;2022-08-11T00:59:27;98732.78;;;19.19;55.57
21824;BME280;11074;48.596;9.238;2022-08-11T01:36:04;98725.69;;;18.86;57.58
21824;BME280;11074;48.596;9.238;2022-08-11T01:48:25;98718.63;;;18.85;58.71
21824;BME280;11074;48.596;9.238;2022-08-11T01:51:14;98709.03;;;18.74;59.40
21824;BME280;11074;48.596;9.238;2022-08-11T01:57:20;98711.88;;;18.64;60.05
21824;BME280;11074;48.596;9.238;2022-08-11T02:00:12;98707.69;;;18.53;61.02
21824;BME280;11074;48.596;9.238;2022-08-11T02:06:15;98702.88;;;18.45;62.17
21824;BME280;11074;48.596;9.238;2022-08-11T02:09:32;98703.19;;;18.43;62.12
21824;BME280;11074;48.596;9.238;2022-08-11T02:20:48;98707.75;;;18.24;62.59
21824;BME280;11074;48.596;9.238;2022-08-11T02:23:58;98696.16;;;18.18;62.55
21824;BME280;11074;48.596;9.238;2022-08-11T02:26:40;98696.84;;;18.05;62.81
21824;BME280;11074;48.596;9.238;2022-08-11T02:32:06;98693.56;;;18.08;62.99
21824;BME280;11074;48.596;9.238;2022-08-11T02:41:12;98694.38;;;17.85;64.44
21824;BME280;11074;48.596;9.238;2022-08-11T02:47:55;98695.44;;;17.84;65.33
21824;BME280;11074;48.596;9.238;2022-08-11T02:51:28;98705.00;;;17.77;65.53
21824;BME280;11074;48.596;9.238;2022-08-11T02:54:12;98713.06;;;17.82;65.71
21824;BME280;11074;48.596;9.238;2022-08-11T03:00:05;98697.16;;;17.41;65.90
21824;BME280;11074;48.596;9.238;2022-08-11T03:03:12;98709.56;;;17.14;65.85
21824;BME280;11074;48.596;9.238;2022-08-11T03:06:11;98707.75;;;17.33;65.98
21824;BME280;11074;48.596;9.238;2022-08-11T03:12:10;98709.66;;;17.71;63.71
21824;BME280;11074;48.596;9.238;2022-08-11T03:15:21;98708.69;;;17.57;63.24
21824;BME280;11074;48.596;9.238;2022-08-11T03:18:32;98711.16;;;17.53;64.06
21824;BME280;11074;48.596;9.238;2022-08-11T03:24:13;98703.38;;;17.42;64.74
21824;BME280;11074;48.596;9.238;2022-08-11T03:27:02;98704.19;;;17.42;64.93
21824;BME280;11074;48.596;9.238;2022-08-11T03:29:41;98701.31;;;17.29;65.90
21824;BME280;11074;48.596;9.238;2022-08-11T03:32:30;98713.53;;;17.21;66.52
21824;BME280;11074;48.596;9.238;2022-08-11T03:35:01;98713.59;;;17.11;67.26
21824;BME280;11074;48.596;9.238;2022-08-11T03:37:53;98714.19;;;17.08;67.18
21824;BME280;11074;48.596;9.238;2022-08-11T03:40:40;98716.38;;;17.01;66.93
21824;BME280;11074;48.596;9.238;2022-08-11T03:43:56;98731.25;;;16.98;67.48
21824;BME280;11074;48.596;9.238;2022-08-11T03:46:48;98720.97;;;17.01;66.93
21824;BME280;11074;48.596;9.238;2022-08-11T03:52:50;98725.63;;;16.90;67.70
21824;BME280;11074;48.596;9.238;2022-08-11T04:01:59;98731.88;;;16.80;68.12
21824;BME280;11074;48.596;9.238;2022-08-11T04:10:39;98728.16;;;16.76;68.71
21824;BME280;11074;48.596;9.238;2022-08-11T04:13:54;98732.44;;;16.77;69.21
21824;BME280;11074;48.596;9.238;2022-08-11T04:20:28;98725.38;;;16.86;66.96
21824;BME280;11074;48.596;9.238;2022-08-11T04:37:42;98715.63;;;16.90;67.78
21824;BME280;11074;48.596;9.238;2022-08-11T04:40:48;98720.06;;;16.66;69.35
21824;BME280;11074;48.596;9.238;2022-08-11T04:50:01;98723.63;;;16.57;68.84
21824;BME280;11074;48.596;9.238;2022-08-11T04:53:18;98723.09;;;16.60;69.68
21824;BME280;11074;48.596;9.238;2022-08-11T04:56:16;98729.56;;;16.59;69.12
21824;BME280;11074;48.596;9.238;2022-08-11T05:17:10;98730.84;;;16.71;67.76
21824;BME280;11074;48.596;9.238;2022-08-11T05:19:55;98734.06;;;16.78;67.81
21824;BME280;11074;48.596;9.238;2022-08-11T05:22:46;98719.50;;;16.74;68.44
21824;BME280;11074;48.596;9.238;2022-08-11T05:25:33;98723.50;;;16.82;66.63
21824;BME280;11074;48.596;9.238;2022-08-11T05:28:37;98728.59;;;16.88;66.36
21824;BME280;11074;48.596;9.238;2022-08-11T05:31:35;98733.47;;;16.91;66.88
21824;BME280;11074;48.596;9.238;2022-08-11T05:34:34;98731.03;;;16.85;67.63
21824;BME280;11074;48.596;9.238;2022-08-11T05:37:37;98732.91;;;16.94;66.97
21824;BME280;11074;48.596;9.238;2022-08-11T05:40:11;98733.94;;;16.98;66.87
21824;BME280;11074;48.596;9.238;2022-08-11T05:43:07;98730.91;;;17.10;66.35
21824;BME280;11074;48.596;9.238;2022-08-11T05:46:03;98733.31;;;17.12;66.88
21824;BME280;11074;48.596;9.238;2022-08-11T05:48:50;98723.91;;;17.04;67.59
21824;BME280;11074;48.596;9.238;2022-08-11T05:51:38;98724.53;;;17.30;66.73
21824;BME280;11074;48.596;9.238;2022-08-11T05:54:26;98723.94;;;16.99;67.49
21824;BME280;11074;48.596;9.238;2022-08-11T05:57:21;98723.88;;;17.09;67.97
21824;BME280;11074;48.596;9.238;2022-08-11T05:59:49;98721.31;;;17.28;67.72
21824;BME280;11074;48.596;9.238;2022-08-11T06:02:23;98734.19;;;17.41;68.27
21824;BME280;11074;48.596;9.238;2022-08-11T06:04:59;98729.94;;;17.35;68.66
21824;BME280;11074;48.596;9.238;2022-08-11T06:07:32;98723.28;;;17.17;69.07
21824;BME280;11074;48.596;9.238;2022-08-11T06:09:59;98727.44;;;17.05;69.84
21824;BME280;11074;48.596;9.238;2022-08-11T06:12:29;98719.91;;;16.96;70.23
21824;BME280;11074;48.596;9.238;2022-08-11T06:15:03;98722.81;;;17.10;69.90
21824;BME280;11074;48.596;9.238;2022-08-11T06:17:34;98715.69;;;17.19;70.05
21824;BME280;11074;48.596;9.238;2022-08-11T06:20:08;98718.53;;;17.43;69.61
21824;BME280;11074;48.596;9.238;2022-08-11T06:22:38;98720.63;;;17.46;69.97
21824;BME280;11074;48.596;9.238;2022-08-11T06:25:07;98725.31;;;17.74;68.88
21824;BME280;11074;48.596;9.238;2022-08-11T06:27:37;98724.78;;;17.72;69.11
21824;BME280;11074;48.596;9.238;2022-08-11T06:30:05;98717.03;;;17.89;68.48
21824;BME280;11074;48.596;9.238;2022-08-11T06:32:44;98717.94;;;18.08;68.09
21824;BME280;11074;48.596;9.238;2022-08-11T06:35:43;98719.50;;;18.38;66.11
21824;BME280;11074;48.596;9.238;2022-08-11T06:38:27;98716.69;;;18.48;66.25
21824;BME280;11074;48.596;9.238;2022-08-11T06:41:22;98717.38;;;18.59;65.67
21824;BME280;11074;48.596;9.238;2022-08-11T06:46:45;98714.69;;;18.96;64.21
21824;BME280;11074;48.596;9.238;2022-08-11T06:49:21;98711.69;;;18.98;63.57
21824;BME280;11074;48.596;9.238;2022-08-11T06:52:10;98708.88;;;19.21;63.08
21824;BME280;11074;48.596;9.238;2022-08-11T06:54:49;98714.53;;;19.25;63.23
21824;BME280;11074;48.596;9.238;2022-08-11T06:57:19;98710.81;;;19.40;61.66
21824;BME280;11074;48.596;9.238;2022-08-11T07:00:04;98707.84;;;19.55;61.67
21824;BME280;11074;48.596;9.238;2022-08-11T07:03:02;98708.81;;;19.64;61.13
21824;BME280;11074;48.596;9.238;2022-08-11T07:05:54;98710.84;;;19.72;60.83
21824;BME280;11074;48.596;9.238;2022-08-11T07:15:31;98703.31;;;20.10;59.67
21824;BME280;11074;48.596;9.238;2022-08-11T07:18:11;98712.00;;;20.12;59.49
21824;BME280;11074;48.596;9.238;2022-08-11T07:21:12;98697.34;;;20.26;57.82
21824;BME280;11074;48.596;9.238;2022-08-11T07:24:02;98700.97;;;20.49;56.47
21824;BME280;11074;48.596;9.238;2022-08-11T07:26:54;98688.06;;;20.54;56.54
21824;BME280;11074;48.596;9.238;2022-08-11T07:29:44;98680.53;;;20.65;55.87
21824;BME280;11074;48.596;9.238;2022-08-11T07:32:21;98696.00;;;20.78;55.08
21824;BME280;11074;48.596;9.238;2022-08-11T07:34:57;98686.19;;;20.91;54.02
21824;BME280;11074;48.596;9.238;2022-08-11T07:37:28;98688.69;;;21.01;54.78
21824;BME280;11074;48.596;9.238;2022-08-11T07:39:58;98681.13;;;21.11;53.23
21824;BME280;11074;48.596;9.238;2022-08-11T07:42:30;98667.72;;;21.15;53.98
21824;BME280;11074;48.596;9.238;2022-08-11T07:45:04;98669.09;;;21.26;53.61
21824;BME280;11074;48.596;9.238;2022-08-11T07:47:51;98675.09;;;21.37;53.25
21824;BME280;11074;48.596;9.238;2022-08-11T07:50:41;98673.34;;;21.41;52.96
21824;BME280;11074;48.596;9.238;2022-08-11T07:53:28;98674.50;;;21.48;52.73
21824;BME280;11074;48.596;9.238;2022-08-11T07:55:59;98676.66;;;21.60;52.52
21824;BME280;11074;48.596;9.238;2022-08-11T07:58:26;98673.69;;;21.70;52.09
21824;BME280;11074;48.596;9.238;2022-08-11T08:01:18;98666.38;;;21.79;52.19
21824;BME280;11074;48.596;9.238;2022-08-11T08:04:06;98670.38;;;21.82;53.11
21824;BME280;11074;48.596;9.238;2022-08-11T08:06:52;98666.94;;;21.90;51.23
21824;BME280;11074;48.596;9.238;2022-08-11T08:09:37;98662.66;;;21.97;51.61
21824;BME280;11074;48.596;9.238;2022-08-11T08:12:23;98670.19;;;22.00;50.61
21824;BME280;11074;48.596;9.238;2022-08-11T08:15:11;98658.34;;;22.05;49.30
21824;BME280;11074;48.596;9.238;2022-08-11T08:18:02;98659.84;;;22.19;50.01
21824;BME280;11074;48.596;9.238;2022-08-11T08:20:44;98661.97;;;22.31;50.69
21824;BME280;11074;48.596;9.238;2022-08-11T08:23:10;98665.16;;;22.33;49.86
21824;BME280;11074;48.596;9.238;2022-08-11T08:25:40;98664.22;;;22.38;48.82
21824;BME280;11074;48.596;9.238;2022-08-11T08:28:11;98659.91;;;22.45;49.57
21824;BME280;11074;48.596;9.238;2022-08-11T08:30:39;98666.84;;;22.51;48.79
21824;BME280;11074;48.596;9.238;2022-08-11T08:33:28;98657.88;;;22.59;49.14
21824;BME280;11074;48.596;9.238;2022-08-11T08:36:01;98665.28;;;22.67;47.98
21824;BME280;11074;48.596;9.238;2022-08-11T08:38:45;98661.75;;;22.75;48.50
21824;BME280;11074;48.596;9.238;2022-08-11T08:41:14;98659.19;;;22.79;48.01
21824;BME280;11074;48.596;9.238;2022-08-11T08:43:44;98650.69;;;22.89;47.40
21824;BME280;11074;48.596;9.238;2022-08-11T08:46:13;98654.56;;;22.97;47.07
21824;BME280;11074;48.596;9.238;2022-08-11T08:48:41;98657.44;;;23.00;46.88
21824;BME280;11074;48.596;9.238;2022-08-11T08:51:11;98663.38;;;23.11;45.91
21824;BME280;11074;48.596;9.238;2022-08-11T08:54:06;98652.13;;;23.21;45.39
21824;BME280;11074;48.596;9.238;2022-08-11T08:56:33;98656.00;;;23.28;46.09
21824;BME280;11074;48.596;9.238;2022-08-11T08:59:03;98656.13;;;23.32;45.92
21824;BME280;11074;48.596;9.238;2022-08-11T09:01:41;98658.56;;;23.33;46.85
21824;BME280;11074;48.596;9.238;2022-08-11T09:04:08;98659.69;;;23.32;47.52
21824;BME280;11074;48.596;9.238;2022-08-11T09:06:38;98651.50;;;23.41;44.70
21824;BME280;11074;48.596;9.238;2022-08-11T09:09:11;98662.72;;;23.48;45.11
21824;BME280;11074;48.596;9.238;2022-08-11T09:11:39;98655.00;;;23.50;44.73
21824;BME280;11074;48.596;9.238;2022-08-11T09:17:12;98658.38;;;23.64;43.20
21824;BME280;11074;48.596;9.238;2022-08-11T09:19:39;98652.53;;;23.74;45.72
21824;BME280;11074;48.596;9.238;2022-08-11T09:22:06;98655.16;;;23.71;44.73
21824;BME280;11074;48.596;9.238;2022-08-11T09:24:51;98654.81;;;23.72;44.50
21824;BME280;11074;48.596;9.238;2022-08-11T09:27:37;98659.47;;;23.72;43.08
21824;BME280;11074;48.596;9.238;2022-08-11T09:30:06;98657.19;;;23.82;42.50
21824;BME280;11074;48.596;9.238;2022-08-11T09:32:33;98657.63;;;23.93;42.35
21824;BME280;11074;48.596;9.238;2022-08-11T09:35:01;98654.25;;;23.96;43.70
21824;BME280;11074;48.596;9.238;2022-08-11T09:37:29;98660.50;;;24.05;41.87
21824;BME280;11074;48.596;9.238;2022-08-11T09:40:15;98653.56;;;24.07;41.40
21824;BME280;11074;48.596;9.238;2022-08-11T09:42:56;98649.72;;;24.08;43.87
21824;BME280;11074;48.596;9.238;2022-08-11T09:45:46;98647.28;;;24.16;43.15
21824;BME280;11074;48.596;9.238;2022-08-11T09:48:17;98650.00;;;24.24;40.10
21824;BME280;11074;48.596;9.238;2022-08-11T09:50:49;98648.34;;;24.32;44.55
21824;BME280;11074;48.596;9.238;2022-08-11T09:53:17;98637.25;;;24.28;40.80
21824;BME280;11074;48.596;9.238;2022-08-11T09:55:44;98643.53;;;24.29;42.72
21824;BME280;11074;48.596;9.238;2022-08-11T09:58:12;98637.03;;;24.42;41.07
21824;BME280;11074;48.596;9.238;2022-08-11T10:00:39;98634.44;;;24.45;41.64
21824;BME280;11074;48.596;9.238;2022-08-11T10:03:20;98621.53;;;24.46;40.75
21824;BME280;11074;48.596;9.238;2022-08-11T10:05:52;98633.88;;;24.52;40.94
21824;BME280;11074;48.596;9.238;2022-08-11T10:08:42;98634.97;;;24.59;41.28
21824;BME280;11074;48.596;9.238;2022-08-11T10:11:13;98638.31;;;24.65;40.13
21824;BME280;11074;48.596;9.238;2022-08-11T10:13:44;98637.41;;;24.82;39.06
21824;BME280;11074;48.596;9.238;2022-08-11T10:16:34;98621.81;;;24.82;37.81
21824;BME280;11074;48.596;9.238;2022-08-11T10:19:03;98627.34;;;24.94;36.02
21824;BME280;11074;48.596;9.238;2022-08-11T10:21:43;98618.16;;;24.99;34.58
21824;BME280;11074;48.596;9.238;2022-08-11T10:24:31;98623.53;;;24.87;36.82
21824;BME280;11074;48.596;9.238;2022-08-11T10:27:16;98617.94;;;24.83;40.89
21824;BME280;11074;48.596;9.238;2022-08-11T10:29:42;98619.19;;;24.86;38.83
21824;BME280;11074;48.596;9.238;2022-08-11T10:32:31;98612.75;;;24.90;40.50
21824;BME280;11074;48.596;9.238;2022-08-11T10:35:19;98615.13;;;24.92;36.74
21824;BME280;11074;48.596;9.238;2022-08-11T10:37:46;98615.06;;;25.00;37.00
21824;BME280;11074;48.596;9.238;2022-08-11T10:40:17;98611.59;;;25.12;38.14
21824;BME280;11074;48.596;9.238;2022-08-11T10:42:58;98617.16;;;25.15;40.70
21824;BME280;11074;48.596;9.238;2022-08-11T10:45:30;98605.34;;;25.23;39.84
21824;BME280;11074;48.596;9.238;2022-08-11T10:48:16;98603.53;;;25.27;37.16
21824;BME280;11074;48.596;9.238;2022-08-11T10:50:47;98603.31;;;25.33;40.48
21824;BME280;11074;48.596;9.238;2022-08-11T10:53:34;98607.53;;;25.30;38.42
21824;BME280;11074;48.596;9.238;2022-08-11T10:56:20;98585.22;;;25.40;37.01
21824;BME280;11074;48.596;9.238;2022-08-11T10:59:08;98589.28;;;25.55;35.48
21824;BME280;11074;48.596;9.238;2022-08-11T11:01:40;98591.56;;;25.65;36.80
21824;BME280;11074;48.596;9.238;2022-08-11T11:04:23;98597.06;;;25.77;35.20
21824;BME280;11074;48.596;9.238;2022-08-11T11:07:53;98584.97;;;25.78;38.01
21824;BME280;11074;48.596;9.238;2022-08-11T11:10:16;98585.78;;;25.78;35.76
21824;BME280;11074;48.596;9.238;2022-08-11T11:12:52;98580.72;;;25.68;37.00
21824;BME280;11074;48.596;9.238;2022-08-11T11:15:43;98574.09;;;25.69;39.25
21824;BME280;11074;48.596;9.238;2022-08-11T11:18:33;98569.88;;;25.72;39.88
21824;BME280;11074;48.596;9.238;2022-08-11T11:21:10;98586.44;;;25.87;36.81
21824;BME280;11074;48.596;9.238;2022-08-11T11:24:24;98575.03;;;25.98;37.76
21824;BME280;11074;48.596;9.238;2022-08-11T11:27:41;98576.06;;;26.05;37.54
21824;BME280;11074;48.596;9.238;2022-08-11T11:30:13;98564.53;;;26.12;38.74
21824;BME280;11074;48.596;9.238;2022-08-11T11:35:54;98551.97;;;26.11;36.17
21824;BME280;11074;48.596;9.238;2022-08-11T11:38:28;98566.25;;;26.28;37.54
21824;BME280;11074;48.596;9.238;2022-08-11T11:40:54;98559.56;;;26.54;35.73
21824;BME280;11074;48.596;9.238;2022-08-11T11:43:38;98556.09;;;26.69;36.93
21824;BME280;11074;48.596;9.238;2022-08-11T11:46:06;98546.72;;;26.82;33.56
21824;BME280;11074;48.596;9.238;2022-08-11T11:48:35;98546.03;;;26.85;38.68
21824;BME280;11074;48.596;9.238;2022-08-11T11:51:02;98537.16;;;26.91;36.71
21824;BME280;11074;48.596;9.238;2022-08-11T11:53:29;98534.88;;;26.93;34.63
21824;BME280;11074;48.596;9.238;2022-08-11T11:55:55;98550.50;;;27.05;36.54
21824;BME280;11074;48.596;9.238;2022-08-11T11:58:22;98548.03;;;27.16;32.17
21824;BME280;11074;48.596;9.238;2022-08-11T12:01:07;98542.28;;;27.21;33.01
21824;BME280;11074;48.596;9.238;2022-08-11T12:03:49;98534.06;;;27.36;32.78
21824;BME280;11074;48.596;9.238;2022-08-11T12:06:19;98545.03;;;27.48;36.69
21824;BME280;11074;48.596;9.238;2022-08-11T12:08:50;98534.84;;;27.49;33.74
21824;BME280;11074;48.596;9.238;2022-08-11T12:11:20;98537.28;;;27.38;32.51
21824;BME280;11074;48.596;9.238;2022-08-11T12:14:07;98545.03;;;27.48;36.30
21824;BME280;11074;48.596;9.238;2022-08-11T12:16:37;98539.53;;;27.64;30.67
21824;BME280;11074;48.596;9.238;2022-08-11T12:19:09;98540.31;;;27.64;31.98
21824;BME280;11074;48.596;9.238;2022-08-11T12:21:37;98530.31;;;27.72;35.30
21824;BME280;11074;48.596;9.238;2022-08-11T12:24:23;98523.19;;;27.71;34.69
21824;BME280;11074;48.596;9.238;2022-08-11T12:27:08;98520.28;;;27.80;32.13
21824;BME280;11074;48.596;9.238;2022-08-11T12:29:50;98523.28;;;27.90;32.03
21824;BME280;11074;48.596;9.238;2022-08-11T12:32:27;98521.78;;;27.77;34.84
21824;BME280;11074;48.596;9.238;2022-08-11T12:34:55;98518.50;;;27.87;31.52
21824;BME280;11074;48.596;9.238;2022-08-11T12:37:39;98513.44;;;28.05;33.36
21824;BME280;11074;48.596;9.238;2022-08-11T12:40:13;98506.97;;;28.13;31.38
21824;BME280;11074;48.596;9.238;2022-08-11T12:43:07;98506.25;;;28.35;32.81
21824;BME280;11074;48.596;9.238;2022-08-11T12:45:57;98503.94;;;28.56;34.62
21824;BME280;11074;48.596;9.238;2022-08-11T12:48:32;98507.94;;;28.40;35.59
21824;BME280;11074;48.596;9.238;2022-08-11T12:51:23;98493.22;;;28.51;32.43
21824;BME280;11074;48.596;9.238;2022-08-11T12:57:02;98484.34;;;28.58;32.10
21824;BME280;11074;48.596;9.238;2022-08-11T12:59:48;98484.22;;;28.70;31.62
21824;BME280;11074;48.596;9.238;2022-08-11T13:02:33;98472.97;;;28.78;32.82
21824;BME280;11074;48.596;9.238;2022-08-11T13:05:20;98479.28;;;28.79;31.05
21824;BME280;11074;48.596;9.238;2022-08-11T13:07:47;98474.94;;;28.78;31.36
21824;BME280;11074;48.596;9.238;2022-08-11T13:10:16;98474.13;;;28.77;31.17
21824;BME280;11074;48.596;9.238;2022-08-11T13:13:06;98478.59;;;28.85;33.89
21824;BME280;11074;48.596;9.238;2022-08-11T13:15:34;98468.41;;;28.86;31.00
21824;BME280;11074;48.596;9.238;2022-08-11T13:18:04;98471.28;;;28.93;30.65
21824;BME280;11074;48.596;9.238;2022-08-11T13:20:34;98463.66;;;29.06;30.17
21824;BME280;11074;48.596;9.238;2022-08-11T13:23:00;98463.28;;;29.07;30.71
21824;BME280;11074;48.596;9.238;2022-08-11T13:25:31;98461.63;;;29.03;34.58
21824;BME280;11074;48.596;9.238;2022-08-11T13:27:59;98459.22;;;29.01;30.19
21824;BME280;11074;48.596;9.238;2022-08-11T13:30:30;98459.72;;;29.07;32.92
21824;BME280;11074;48.596;9.238;2022-08-11T13:33:16;98458.16;;;29.06;32.36
21824;BME280;11074;48.596;9.238;2022-08-11T13:35:46;98460.19;;;29.09;29.46
21824;BME280;11074;48.596;9.238;2022-08-11T13:38:16;98459.72;;;29.26;29.02
21824;BME280;11074;48.596;9.238;2022-08-11T13:40:44;98468.84;;;29.30;29.15
21824;BME280;11074;48.596;9.238;2022-08-11T13:43:13;98454.94;;;29.46;31.26
21824;BME280;11074;48.596;9.238;2022-08-11T13:45:40;98452.88;;;29.65;29.22
21824;BME280;11074;48.596;9.238;2022-08-11T13:48:09;98453.19;;;29.60;30.35
21824;BME280;11074;48.596;9.238;2022-08-11T13:50:37;98461.53;;;29.41;30.26
21824;BME280;11074;48.596;9.238;2022-08-11T13:53:24;98456.81;;;29.41;33.00
21824;BME280;11074;48.596;9.238;2022-08-11T13:55:52;98449.78;;;29.44;34.43
21824;BME280;11074;48.596;9.238;2022-08-11T13:58:18;98450.41;;;29.34;30.12
21824;BME280;11074;48.596;9.238;2022-08-11T14:00:49;98438.22;;;29.35;28.64
21824;BME280;11074;48.596;9.238;2022-08-11T14:03:23;98426.56;;;29.45;29.90
21824;BME280;11074;48.596;9.238;2022-08-11T14:05:52;98432.50;;;29.47;35.27
21824;BME280;11074;48.596;9.238;2022-08-11T14:08:25;98426.94;;;29.43;34.87
21824;BME280;11074;48.596;9.238;2022-08-11T14:10:54;98424.97;;;29.44;34.16
21824;BME280;11074;48.596;9.238;2022-08-11T14:13:44;98416.50;;;29.30;28.83
21824;BME280;11074;48.596;9.238;2022-08-11T14:16:17;98411.09;;;29.37;29.50
21824;BME280;11074;48.596;9.238;2022-08-11T14:18:47;98415.66;;;29.52;32.80
21824;BME280;11074;48.596;9.238;2022-08-11T14:21:17;98415.78;;;29.59;30.48
21824;BME280;11074;48.596;9.238;2022-08-11T14:24:05;98416.19;;;29.61;28.59
21824;BME280;11074;48.596;9.238;2022-08-11T14:26:32;98414.00;;;29.74;28.81
21824;BME280;11074;48.596;9.238;2022-08-11T14:29:17;98419.03;;;29.91;32.36
21824;BME280;11074;48.596;9.238;2022-08-11T14:31:47;98419.78;;;29.91;28.11
21824;BME280;11074;48.596;9.238;2022-08-11T14:34:21;98416.75;;;29.96;27.90
21824;BME280;11074;48.596;9.238;2022-08-11T14:36:52;98415.56;;;29.97;27.95
21824;BME280;11074;48.596;9.238;2022-08-11T14:39:24;98411.22;;;29.96;26.65
21824;BME280;11074;48.596;9.238;2022-08-11T14:41:57;98408.97;;;30.06;27.22
21824;BME280;11074;48.596;9.238;2022-08-11T14:44:49;98416.16;;;30.14;28.61
21824;BME280;11074;48.596;9.238;2022-08-11T14:47:38;98409.91;;;30.17;29.40
21824;BME280;11074;48.596;9.238;2022-08-11T14:50:08;98407.97;;;30.21;30.14
21824;BME280;11074;48.596;9.238;2022-08-11T14:52:36;98403.13;;;30.11;29.31
21824;BME280;11074;48.596;9.238;2022-08-11T14:55:04;98395.59;;;30.08;27.85
21824;BME280;11074;48.596;9.238;2022-08-11T14:57:49;98406.31;;;30.13;30.05
21824;BME280;11074;48.596;9.238;2022-08-11T15:00:17;98393.22;;;30.06;27.55
21824;BME280;11074;48.596;9.238;2022-08-11T15:02:47;98385.13;;;30.20;26.79
21824;BME280;11074;48.596;9.238;2022-08-11T15:05:32;98395.28;;;30.13;27.85
21824;BME280;11074;48.596;9.238;2022-08-11T15:07:58;98395.28;;;30.13;29.89
21824;BME280;11074;48.596;9.238;2022-08-11T15:10:26;98392.13;;;30.14;32.50
21824;BME280;11074;48.596;9.238;2022-08-11T15:12:53;98388.84;;;30.01;32.25
21824;BME280;11074;48.596;9.238;2022-08-11T15:15:21;98386.94;;;30.09;28.66
21824;BME280;11074;48.596;9.238;2022-08-11T15:18:12;98383.41;;;30.09;31.64
21824;BME280;11074;48.596;9.238;2022-08-11T15:20:42;98379.56;;;30.17;31.19
21824;BME280;11074;48.596;9.238;2022-08-11T15:23:28;98370.13;;;30.18;28.27
21824;BME280;11074;48.596;9.238;2022-08-11T15:26:37;98369.03;;;30.26;31.99
21824;BME280;11074;48.596;9.238;2022-08-11T15:29:27;98366.16;;;30.15;30.91
21824;BME280;11074;48.596;9.238;2022-08-11T15:32:14;98364.97;;;30.16;30.08
21824;BME280;11074;48.596;9.238;2022-08-11T15:34:57;98364.09;;;30.09;31.60
21824;BME280;11074;48.596;9.238;2022-08-11T15:37:44;98360.91;;;30.07;34.89
21824;BME280;11074;48.596;9.238;2022-08-11T15:40:26;98358.44;;;29.98;32.09
21824;BME280;11074;48.596;9.238;2022-08-11T15:43:22;98360.59;;;29.82;33.48
21824;BME280;11074;48.596;9.238;2022-08-11T15:46:18;98361.34;;;29.79;31.29
21824;BME280;11074;48.596;9.238;2022-08-11T15:48:51;98354.34;;;29.85;27.72
21824;BME280;11074;48.596;9.238;2022-08-11T15:51:40;98348.53;;;29.93;27.07
21824;BME280;11074;48.596;9.238;2022-08-11T15:54:11;98347.47;;;30.05;29.74
21824;BME280;11074;48.596;9.238;2022-08-11T15:56:42;98342.56;;;30.21;29.76
21824;BME280;11074;48.596;9.238;2022-08-11T15:59:13;98349.66;;;30.22;28.44
21824;BME280;11074;48.596;9.238;2022-08-11T16:02:21;98348.25;;;30.35;30.13
21824;BME280;11074;48.596;9.238;2022-08-11T16:05:12;98341.59;;;30.36;29.91
21824;BME280;11074;48.596;9.238;2022-08-11T16:07:39;98343.97;;;30.38;28.60
21824;BME280;11074;48.596;9.238;2022-08-11T16:10:08;98348.72;;;30.41;28.68
21824;BME280;11074;48.596;9.238;2022-08-11T16:12:44;98334.63;;;30.49;31.36
21824;BME280;11074;48.596;9.238;2022-08-11T16:15:32;98342.03;;;30.42;28.65
21824;BME280;11074;48.596;9.238;2022-08-11T16:18:25;98343.22;;;30.41;31.14
21824;BME280;11074;48.596;9.238;2022-08-11T16:21:10;98332.56;;;30.43;29.70
21824;BME280;11074;48.596;9.238;2022-08-11T16:23:40;98338.50;;;30.45;29.01
21824;BME280;11074;48.596;9.238;2022-08-11T16:26:08;98330.22;;;30.45;29.81
21824;BME280;11074;48.596;9.238;2022-08-11T16:28:37;98329.97;;;30.57;30.68
21824;BME280;11074;48.596;9.238;2022-08-11T16:31:06;98328.38;;;30.56;28.46
21824;BME280;11074;48.596;9.238;2022-08-11T16:33:37;98333.38;;;30.43;30.67
21824;BME280;11074;48.596;9.238;2022-08-11T16:36:07;98333.56;;;30.28;29.58
21824;BME280;11074;48.596;9.238;2022-08-11T16:38:54;98322.28;;;30.36;31.59
21824;BME280;11074;48.596;9.238;2022-08-11T16:41:25;98321.50;;;30.39;28.73
21824;BME280;11074;48.596;9.238;2022-08-11T16:44:13;98325.75;;;30.33;28.19
21824;BME280;11074;48.596;9.238;2022-08-11T16:47:00;98326.66;;;30.41;29.05
21824;BME280;11074;48.596;9.238;2022-08-11T16:49:31;98325.03;;;30.40;29.68
21824;BME280;11074;48.596;9.238;2022-08-11T16:51:59;98322.69;;;30.38;29.20
21824;BME280;11074;48.596;9.238;2022-08-11T16:54:31;98324.69;;;30.45;30.79
21824;BME280;11074;48.596;9.238;2022-08-11T16:57:00;98321.59;;;30.46;30.19
21824;BME280;11074;48.596;9.238;2022-08-11T16:59:48;98326.56;;;30.34;28.85